Pagrindinis puslapis
METAR-TAF:

METAR-TAF

Oro uostai :

Marianhamina, Suomija

platuma: 60-07N, ilguma: 019-54E, Aukštis: 6 m

Dabartinis oras

Ataskaita buvo paskelbta 33 minutes, ne 06:50 UTC
Vėjas 2 kt nuo kintamojo kryptimis
Temperatūra -2°C
Drėgmė 93%
Slėgis 1007 hPa
Matomumas 10 km arba daugiau
Su prošvaistėmis ne aukštis 800 ft
Apsiniaukę ne aukštis 6100 ft

METAR: EFMA 230650Z VRB02KT 9999 BKN008 OVC061 M02/M03 Q1007

Laikas: 09:23 (07:23 UTC)

Prognozė

Ataskaita buvo paskelbta 50 minutes, ne 06:33 UTC
Prognozė galioja nuo 23 metu 06 UTC su 23 metu 15 UTC
Vėjas 3 kt iš Šiaurės/Šiaurės Vakarų
Matomumas 10 km arba daugiau
Apsiniaukę ne aukštis 4000 ft
Laikinai
nuo 23 metu 06 UTC su 23 metu 09 UTC
Su prošvaistėmis ne aukštis 900 ft
Laikinai
nuo 23 metu 12 UTC su 23 metu 15 UTC
Su prošvaistėmis ne aukštis 900 ft

TAF: EFMA 230633Z 2306/2315 33003KT 9999 OVC040 TEMPO 2306/2309 BKN009 TEMPO 2312/2315 BKN009

Orai ataskaitas ir orų prognozės (METAR, TAF).

turimą stotys yra geltonos ir raudonos taškus žemėlapyje.

Perkelti pele per norėdami pamatyti stoties vardą.

Tada spustelėkite, norėdami matyti oro stebėjimo ir prognozės.

Norėdami pakeisti žemėlapį: spustelėkite ant žalios mygtukų su juodo kryžiaus žemyn,; žalią mygtuką su brūkšneliu, jei norite nutolinti; arba žalių rodyklių gretimoms žemėlapius.


METAR-TAF: